Time;durP1;ratioP1;P1;durP2;ratioP2;P2;SDS_P1;SDS_P2;PMS_P1;PMS_P2;Temp;Humidity;BMP_temperature;BMP_pressure;BME280_temperature;BME280_humidity;BME280_pressure;Samples;Min_cycle;Max_cycle;Signal;HPM_P1;HPM_P2
2022/07/09 04:24:15;;;;;;;0.90;0.40;;;;;;;14.63;100.00;99720.78;6093052;22;3838178;-96
2022/07/09 04:26:42;;;;;;;1.85;0.38;;;;;;;14.43;100.00;99728.81;6188786;23;20020;-95
2022/07/09 04:29:08;;;;;;;2.15;0.50;;;;;;;14.63;100.00;99739.16;6189475;23;20031;-96
2022/07/09 04:31:34;;;;;;;1.10;0.45;;;;;;;14.59;100.00;99732.16;6185984;23;20514;-96
2022/07/09 04:33:59;;;;;;;1.48;0.40;;;;;;;14.66;100.00;99736.50;6189331;23;20082;-96
2022/07/09 04:36:25;;;;;;;0.80;0.38;;;;;;;14.70;100.00;99736.44;6191090;23;20043;-96
2022/07/09 04:38:51;;;;;;;1.73;0.45;;;;;;;14.83;100.00;99738.06;6186360;23;20083;-96
2022/07/09 04:41:17;;;;;;;1.15;0.40;;;;;;;14.63;100.00;99730.41;6190779;23;20028;-96
2022/07/09 04:43:42;;;;;;;1.48;0.40;;;;;;;14.85;100.00;99741.56;6186708;23;20035;-96
2022/07/09 04:46:08;;;;;;;1.67;0.50;;;;;;;14.41;100.00;99753.34;6188116;23;20136;-94
2022/07/09 04:48:34;;;;;;;0.60;0.30;;;;;;;14.26;100.00;99747.31;6182103;23;20047;-96
2022/07/09 04:51:00;;;;;;;1.63;0.40;;;;;;;14.43;100.00;99746.31;6181543;23;20072;-95
2022/07/09 04:53:25;;;;;;;1.80;0.30;;;;;;;14.38;100.00;99750.72;6210551;23;20483;-96
2022/07/09 04:56:29;;;;;;;1.30;0.30;;;;;;;14.46;100.00;99764.63;6189156;23;20623;-96
2022/07/09 04:58:55;;;;;;;1.02;0.38;;;;;;;14.58;100.00;99756.66;6184688;23;20039;-96
2022/07/09 05:01:23;;;;;;;0.88;0.30;;;;;;;14.57;100.00;99762.81;6184320;23;20016;-96
2022/07/09 05:03:52;;;;;;;1.35;0.57;;;;;;;14.73;100.00;99749.56;6182636;23;20013;-96
2022/07/09 05:06:23;;;;;;;1.02;0.40;;;;;;;14.76;100.00;99757.41;6182821;23;20012;-96
2022/07/09 05:08:48;;;;;;;1.58;0.40;;;;;;;14.64;100.00;99758.38;6185273;23;20012;-95
2022/07/09 05:11:14;;;;;;;2.00;0.40;;;;;;;15.01;100.00;99745.75;6183953;23;20457;-94
2022/07/09 05:13:40;;;;;;;0.95;0.40;;;;;;;15.13;100.00;99733.38;6183254;23;20012;-96
2022/07/09 05:17:05;;;;;;;0.65;0.35;;;;;;;14.98;100.00;99730.03;6187636;23;20487;-95
2022/07/09 05:19:58;;;;;;;3.45;0.50;;;;;;;14.94;100.00;99704.69;6073666;23;20002;-95
2022/07/09 05:22:24;;;;;;;0.70;0.40;;;;;;;14.80;100.00;99710.09;6069142;23;20017;-95
2022/07/09 05:25:05;;;;;;;2.15;0.60;;;;;;;14.82;100.00;99705.69;6063383;23;20022;-95
2022/07/09 05:27:32;;;;;;;1.42;0.47;;;;;;;14.81;100.00;99706.59;6063810;23;20022;-96
2022/07/09 05:30:09;;;;;;;1.48;0.47;;;;;;;14.98;100.00;99711.63;6067146;23;20022;-96
2022/07/09 05:33:05;;;;;;;0.82;0.40;;;;;;;15.13;100.00;99700.06;6066188;23;20098;-96
2022/07/09 05:35:52;;;;;;;2.35;0.70;;;;;;;15.04;100.00;99709.84;6067794;23;20011;-96
2022/07/09 05:38:27;;;;;;;1.38;0.55;;;;;;;15.00;100.00;99720.38;6065291;23;20053;-96
2022/07/09 05:40:53;;;;;;;2.95;0.70;;;;;;;14.79;100.00;99723.22;6066071;23;20010;-96
2022/07/09 05:43:18;;;;;;;3.17;0.80;;;;;;;14.85;100.00;99728.44;6067141;23;20097;-96
2022/07/09 05:45:44;;;;;;;1.48;0.47;;;;;;;14.71;100.00;99738.19;6072153;23;20018;-96
2022/07/09 05:48:10;;;;;;;1.33;0.50;;;;;;;14.51;100.00;99739.22;6066615;23;20014;-96
2022/07/09 05:50:36;;;;;;;2.13;0.40;;;;;;;14.42;100.00;99747.19;6065443;23;20014;-96
2022/07/09 05:53:01;;;;;;;1.75;0.52;;;;;;;14.78;100.00;99742.50;6066216;23;20014;-96
2022/07/09 05:55:27;;;;;;;2.15;0.50;;;;;;;14.63;100.00;99735.66;6151960;23;20491;-96
2022/07/09 05:57:52;;;;;;;1.58;0.40;;;;;;;14.72;100.00;99739.94;6188330;23;20032;-96
2022/07/09 06:00:18;;;;;;;1.95;0.55;;;;;;;14.11;100.00;99736.94;6189992;23;20051;-96
2022/07/09 06:02:43;;;;;;;2.30;0.50;;;;;;;14.34;100.00;99744.63;6189371;23;20075;-96
2022/07/09 06:05:09;;;;;;;1.48;0.38;;;;;;;14.44;100.00;99732.31;6188377;23;20012;-96
2022/07/09 06:07:35;;;;;;;1.60;0.50;;;;;;;14.63;100.00;99735.66;6189893;23;19997;-96
2022/07/09 06:10:01;;;;;;;1.60;0.40;;;;;;;14.58;100.00;99735.66;6189905;23;20009;-96
2022/07/09 06:12:27;;;;;;;1.20;0.40;;;;;;;14.43;100.00;99739.31;6191613;23;20446;-96
2022/07/09 06:14:52;;;;;;;1.25;0.40;;;;;;;14.80;100.00;99738.13;6190122;23;20012;-95
2022/07/09 06:17:18;;;;;;;2.92;0.60;;;;;;;14.94;100.00;99728.31;6189041;23;20039;-96
2022/07/09 06:19:46;;;;;;;1.77;0.50;;;;;;;14.77;100.00;99730.28;6196293;23;20096;-95
2022/07/09 06:22:12;;;;;;;3.17;0.50;;;;;;;14.84;100.00;99730.19;6192460;23;20008;-96
2022/07/09 06:24:40;;;;;;;1.67;0.50;;;;;;;15.41;100.00;99739.16;6189948;23;20012;-96
2022/07/09 06:27:06;;;;;;;2.05;0.60;;;;;;;15.16;100.00;99733.34;6191007;23;20004;-96
2022/07/09 06:29:32;;;;;;;1.98;0.60;;;;;;;15.12;100.00;99731.63;6191069;23;20016;-95
2022/07/09 06:32:00;;;;;;;1.52;0.52;;;;;;;15.19;100.00;99731.53;6187664;23;20008;-96
2022/07/09 06:34:26;;;;;;;2.92;0.60;;;;;;;15.10;100.00;99725.50;6190256;23;20669;-95
2022/07/09 06:36:54;;;;;;;2.85;0.77;;;;;;;15.05;100.00;99720.31;6197759;23;19992;-96
2022/07/09 06:40:13;;;;;;;4.15;0.90;;;;;;;14.68;100.00;99718.09;6199751;23;19985;-96
2022/07/09 06:42:38;;;;;;;4.63;0.90;;;;;;;14.62;100.00;99711.16;6048691;23;20002;-94
2022/07/09 06:45:04;;;;;;;2.78;0.70;;;;;;;14.99;100.00;99733.53;6042572;23;20006;-95
2022/07/09 06:47:30;;;;;;;3.47;0.80;;;;;;;14.89;100.00;99740.66;6066242;23;20119;-96
2022/07/09 06:50:21;;;;;;;1.45;0.57;;;;;;;14.80;100.00;99743.38;6041901;23;20018;-92
2022/07/09 06:52:47;;;;;;;2.63;0.70;;;;;;;14.88;100.00;99744.16;6041215;23;20011;-96
2022/07/09 06:55:13;;;;;;;2.22;0.70;;;;;;;14.36;100.00;99755.13;6041261;23;20010;-93
2022/07/09 06:57:38;;;;;;;3.72;0.80;;;;;;;14.29;100.00;99742.06;6040031;23;20346;-95
2022/07/09 07:00:06;;;;;;;4.47;0.70;;;;;;;14.47;100.00;99753.25;6039932;23;20018;-94
2022/07/09 07:02:36;;;;;;;3.25;0.82;;;;;;;14.36;100.00;99742.84;6041549;23;20108;-95
2022/07/09 07:05:03;;;;;;;3.03;0.70;;;;;;;14.42;100.00;99737.56;6039379;23;20194;-93
2022/07/09 07:07:28;;;;;;;3.05;0.80;;;;;;;14.60;100.00;99741.78;6042823;23;20034;-94
2022/07/09 07:09:54;;;;;;;4.28;1.00;;;;;;;14.54;100.00;99739.19;6039811;23;20359;-92
2022/07/09 07:12:19;;;;;;;4.13;0.80;;;;;;;14.54;100.00;99749.69;6038771;23;20021;-92
2022/07/09 07:14:59;;;;;;;3.17;0.80;;;;;;;14.63;100.00;99736.53;6036173;23;20010;-93
2022/07/09 07:17:24;;;;;;;2.42;0.68;;;;;;;14.37;100.00;99728.00;6079789;23;20016;-94
2022/07/09 07:19:51;;;;;;;2.80;0.77;;;;;;;14.68;100.00;99741.72;6214912;23;20016;-93
2022/07/09 07:23:09;;;;;;;3.47;0.98;;;;;;;14.67;100.00;99743.50;6189998;23;20004;-93
2022/07/09 07:25:34;;;;;;;2.70;0.70;;;;;;;14.97;100.00;99736.16;6122390;23;20031;-94
2022/07/09 07:28:01;;;;;;;3.42;0.90;;;;;;;14.83;100.00;99751.19;6214334;23;19996;-93
2022/07/09 07:30:27;;;;;;;2.33;0.70;;;;;;;14.83;100.00;99738.94;6188058;23;20004;-92
2022/07/09 07:32:52;;;;;;;3.08;0.70;;;;;;;14.74;100.00;99748.66;6189212;23;20005;-93
2022/07/09 07:35:18;;;;;;;3.65;0.90;;;;;;;14.85;100.00;99731.06;6189708;23;20016;-96
2022/07/09 07:37:44;;;;;;;4.20;0.90;;;;;;;14.87;100.00;99738.94;6187823;23;20098;-93
2022/07/09 07:40:15;;;;;;;4.00;0.93;;;;;;;14.82;100.00;99752.09;6188174;23;20062;-94
2022/07/09 07:42:41;;;;;;;4.10;0.98;;;;;;;14.88;100.00;99748.53;6187025;23;20020;-93
2022/07/09 07:45:07;;;;;;;2.97;0.80;;;;;;;14.99;100.00;99754.56;6189036;23;20335;-94
2022/07/09 07:47:36;;;;;;;3.33;0.82;;;;;;;15.25;100.00;99748.09;6187045;23;20032;-94
2022/07/09 07:50:04;;;;;;;3.63;0.90;;;;;;;15.39;100.00;99769.81;6188486;23;20036;-94
2022/07/09 07:52:30;;;;;;;2.50;0.65;;;;;;;15.10;100.00;99762.28;6214508;23;20063;-92
2022/07/09 07:54:56;;;;;;;3.38;1.00;;;;;;;15.17;100.00;99758.69;6186222;23;20005;-94
2022/07/09 07:57:22;;;;;;;4.25;0.90;;;;;;;15.44;100.00;99752.25;6190110;23;20019;-92
2022/07/09 07:59:52;;;;;;;4.10;1.15;;;;;;;15.19;100.00;99763.06;6187595;23;20008;-92
2022/07/09 08:02:17;;;;;;;3.05;0.88;;;;;;;15.18;100.00;99760.44;6213772;23;20024;-93
2022/07/09 08:04:43;;;;;;;3.58;1.00;;;;;;;15.25;100.00;99751.59;6186779;23;20008;-93
2022/07/09 08:07:12;;;;;;;4.05;0.88;;;;;;;15.51;100.00;99753.03;6187647;23;20032;-93
2022/07/09 08:09:37;;;;;;;4.00;1.00;;;;;;;15.72;100.00;99758.91;6189495;23;20014;-93
2022/07/09 08:12:03;;;;;;;2.15;0.70;;;;;;;15.47;100.00;99756.59;6187493;23;20024;-93
2022/07/09 08:14:29;;;;;;;4.55;0.90;;;;;;;15.34;100.00;99751.50;6187287;23;20036;-94
2022/07/09 08:16:54;;;;;;;5.07;1.00;;;;;;;15.42;100.00;99754.03;6188457;23;21160;-92
2022/07/09 08:19:20;;;;;;;1.98;0.60;;;;;;;15.64;100.00;99752.00;6188139;23;20080;-92
2022/07/09 08:22:23;;;;;;;5.13;0.93;;;;;;;15.50;100.00;99752.19;6186457;23;20000;-92
2022/07/09 08:24:57;;;;;;;2.08;0.63;;;;;;;15.68;100.00;99763.31;6187061;23;20036;-93
2022/07/09 08:30:44;;;;;;;3.97;0.88;;;;;;;15.91;100.00;99767.41;6215174;23;20023;-93
2022/07/09 08:33:10;;;;;;;2.63;0.50;;;;;;;16.08;100.00;99752.25;6188674;23;20044;-94
2022/07/09 08:35:36;;;;;;;2.80;0.70;;;;;;;16.04;100.00;99759.31;6187470;23;20078;-94
2022/07/09 08:38:04;;;;;;;3.00;0.63;;;;;;;16.81;100.00;99756.28;6188213;23;20012;-91
2022/07/09 08:40:30;;;;;;;3.60;0.88;;;;;;;16.54;100.00;99769.91;6186834;23;20078;-92
2022/07/09 08:42:57;;;;;;;3.80;0.70;;;;;;;16.81;100.00;99756.28;6189092;23;20088;-94
2022/07/09 08:45:35;;;;;;;5.10;0.80;;;;;;;16.72;100.00;99750.28;6189638;23;20016;-93
2022/07/09 08:48:01;;;;;;;4.47;0.82;;;;;;;16.64;100.00;99757.44;6189632;23;20039;-93
2022/07/09 08:50:40;;;;;;;7.05;0.90;;;;;;;16.53;100.00;99749.75;6189322;23;20505;-93
2022/07/09 08:53:45;;;;;;;;;;;;;;;;;;;;;
2022/07/09 08:56:12;;;;;;;4.65;0.80;;;;;;;16.35;100.00;99764.09;6213037;23;20083;-94
2022/07/09 08:58:44;;;;;;;4.50;0.85;;;;;;;16.71;100.00;99760.84;6188767;23;20004;-92
2022/07/09 09:01:14;;;;;;;4.20;0.77;;;;;;;16.35;100.00;99773.75;6187393;23;20032;-94
2022/07/09 09:03:44;;;;;;;5.68;0.80;;;;;;;16.49;100.00;99760.34;6189167;23;20062;-93
2022/07/09 09:06:11;;;;;;;3.65;0.73;;;;;;;16.53;100.00;99757.66;6191280;23;20009;-94
2022/07/09 09:08:39;;;;;;;5.30;0.88;;;;;;;16.82;100.00;99750.13;6191982;23;20008;-94
2022/07/09 09:11:06;;;;;;;3.00;0.70;;;;;;;16.77;100.00;99751.97;6203967;23;19996;-94
2022/07/09 09:13:46;;;;;;;3.55;0.80;;;;;;;16.76;100.00;99751.09;6206304;23;20015;-94
2022/07/09 09:16:13;;;;;;;4.68;0.73;;;;;;;16.97;100.00;99741.97;6206318;23;20072;-93
2022/07/09 09:18:50;;;;;;;3.78;0.73;;;;;;;17.23;100.00;99745.84;6205625;23;19988;-93
2022/07/09 09:21:25;;;;;;;2.47;0.65;;;;;;;17.41;100.00;99736.66;6201090;23;20487;-93
2022/07/09 09:23:54;;;;;;;3.85;0.60;;;;;;;16.84;100.00;99753.59;6214357;23;20423;-92
2022/07/09 09:26:22;;;;;;;3.47;0.80;;;;;;;16.82;100.00;99742.22;6189516;23;20035;-94
2022/07/09 09:29:04;;;;;;;4.20;0.73;;;;;;;17.16;100.00;99746.84;6190698;23;20012;-94
2022/07/09 09:31:36;;;;;;;4.05;0.65;;;;;;;17.21;100.00;99743.22;6191043;23;20004;-94
2022/07/09 09:34:04;;;;;;;4.10;0.70;;;;;;;17.07;100.00;99750.56;6188727;23;20095;-94
2022/07/09 09:36:36;;;;;;;3.25;0.70;;;;;;;17.27;100.00;99757.19;6187979;23;20011;-92
2022/07/09 09:39:22;;;;;;;3.65;0.75;;;;;;;17.27;100.00;99757.19;6187888;23;20067;-94
2022/07/09 09:42:03;;;;;;;4.90;0.82;;;;;;;17.33;100.00;99746.53;6187207;23;20008;-94
2022/07/09 09:44:37;;;;;;;3.50;0.70;;;;;;;17.40;100.00;99745.50;6188158;23;20012;-93
2022/07/09 09:47:23;;;;;;;5.28;0.90;;;;;;;17.47;100.00;99756.78;6187249;23;20000;-94
2022/07/09 09:49:49;;;;;;;3.90;0.90;;;;;;;17.67;100.00;99757.19;6186601;23;20347;-93
2022/07/09 09:52:19;;;;;;;3.42;0.85;;;;;;;17.29;100.00;99763.31;6213501;23;20004;-92
2022/07/09 09:54:47;;;;;;;3.88;0.77;;;;;;;17.66;100.00;99758.13;6213373;23;20001;-92
2022/07/09 09:57:13;;;;;;;2.53;0.63;;;;;;;17.87;100.00;99747.97;6187777;23;20009;-92
2022/07/09 09:59:41;;;;;;;6.85;1.00;;;;;;;18.04;100.00;99750.25;6213651;23;20001;-94
2022/07/09 10:02:10;;;;;;;4.28;0.80;;;;;;;18.21;100.00;99749.84;6187759;23;20023;-92
2022/07/09 10:04:37;;;;;;;3.25;0.70;;;;;;;18.56;100.00;99750.72;6187455;23;20032;-92
2022/07/09 10:07:07;;;;;;;3.75;0.75;;;;;;;18.33;100.00;99748.66;6185280;23;20036;-93
2022/07/09 10:09:33;;;;;;;4.40;0.88;;;;;;;18.46;100.00;99749.25;6185702;23;20071;-93
2022/07/09 10:12:02;;;;;;;3.60;1.00;;;;;;;18.42;100.00;99745.81;6187201;23;20005;-92
2022/07/09 10:14:36;;;;;;;3.33;0.82;;;;;;;18.52;100.00;99749.94;6187179;23;20086;-93
2022/07/09 10:17:19;;;;;;;8.05;1.35;;;;;;;19.05;100.00;99741.53;6184040;23;20376;-93
2022/07/09 10:19:54;;;;;;;4.07;0.85;;;;;;;19.91;100.00;99769.88;6187743;23;20016;-94
2022/07/09 10:22:43;;;;;;;4.18;0.90;;;;;;;19.51;100.00;99757.84;6186889;23;20011;-93
2022/07/09 10:25:46;;;;;;;3.10;0.85;;;;;;;20.49;100.00;99763.59;6188166;23;20016;-94
2022/07/09 10:28:16;;;;;;;3.58;0.90;;;;;;;20.43;100.00;99756.72;6184490;23;20020;-95
2022/07/09 10:31:22;;;;;;;3.08;0.80;;;;;;;19.88;100.00;99761.19;6186196;23;20363;-95
2022/07/09 10:34:15;;;;;;;5.35;1.20;;;;;;;20.63;100.00;99758.69;6040317;23;20006;-96
2022/07/09 10:36:55;;;;;;;5.55;1.20;;;;;;;20.98;100.00;99772.53;6033496;23;20045;-92
2022/07/09 10:39:21;;;;;;;5.82;1.10;;;;;;;19.93;100.00;99785.69;6036113;23;20030;-91
2022/07/09 10:42:18;;;;;;;2.92;0.90;;;;;;;20.64;100.00;99772.84;6038597;23;20015;-92
2022/07/09 10:44:53;;;;;;;4.20;1.00;;;;;;;19.91;100.00;99771.66;6040528;23;20003;-95
2022/07/09 10:47:20;;;;;;;5.50;1.00;;;;;;;19.72;100.00;99761.63;6041281;23;20018;-96
2022/07/09 10:50:00;;;;;;;4.07;0.95;;;;;;;20.36;100.00;99752.56;6040513;23;20006;-96
2022/07/09 10:52:30;;;;;;;3.88;0.80;;;;;;;21.05;100.00;99764.38;6042085;23;20090;-95
2022/07/09 10:54:56;;;;;;;3.08;1.02;;;;;;;20.73;100.00;99761.94;6043117;23;20011;-96
2022/07/09 10:57:22;;;;;;;3.33;0.88;;;;;;;20.62;100.00;99758.75;6040776;23;20078;-96
2022/07/09 10:59:52;;;;;;;4.15;0.95;;;;;;;20.80;100.00;99762.59;6041201;23;20123;-96
2022/07/09 11:02:23;;;;;;;4.60;1.10;;;;;;;20.80;100.00;99760.78;6039488;23;20463;-96
2022/07/09 11:04:57;;;;;;;5.80;1.23;;;;;;;20.89;100.00;99772.00;6156368;23;20345;-91
2022/07/09 11:07:27;;;;;;;4.45;1.10;;;;;;;21.18;100.00;99768.28;6186698;23;20084;-91
2022/07/09 11:09:55;;;;;;;5.35;1.30;;;;;;;20.88;100.00;99771.13;6187470;23;20489;-94
2022/07/09 11:12:22;;;;;;;5.97;1.25;;;;;;;21.22;100.00;99777.88;6186264;23;20075;-95
2022/07/09 11:14:50;;;;;;;3.28;1.00;;;;;;;21.45;100.00;99765.56;6216689;23;20001;-95
2022/07/09 11:17:21;;;;;;;3.65;0.85;;;;;;;21.45;100.00;99773.50;6187593;23;20038;-96
2022/07/09 11:20:29;;;;;;;4.72;1.17;;;;;;;20.60;100.00;99769.41;6186388;23;20017;-95
2022/07/09 11:23:13;;;;;;;3.65;1.00;;;;;;;20.28;100.00;99765.19;6062682;23;20041;-95
2022/07/09 11:25:38;;;;;;;;;;;;;;;20.94;100.00;99783.31;6041560;23;20023;-96
2022/07/09 11:28:04;;;;;;;3.53;1.05;;;;;;;20.70;100.00;99774.44;6043188;23;19909;-96
2022/07/09 11:30:32;;;;;;;5.20;1.00;;;;;;;21.39;100.00;99776.38;6043607;23;20010;-96
2022/07/09 11:32:58;;;;;;;3.78;0.90;;;;;;;21.87;100.00;99778.13;6043090;23;20011;-96
2022/07/09 11:35:33;;;;;;;4.50;0.95;;;;;;;21.99;100.00;99790.06;6043819;23;20412;-96
2022/07/09 11:38:01;;;;;;;3.65;0.82;;;;;;;22.55;100.00;99785.19;6042678;23;20614;-96
2022/07/09 11:40:28;;;;;;;5.50;1.08;;;;;;;22.45;100.00;99766.06;6042756;23;20045;-96
2022/07/09 11:42:54;;;;;;;4.30;0.90;;;;;;;21.20;100.00;99769.13;6041068;23;20015;-95
2022/07/09 11:45:25;;;;;;;5.28;1.10;;;;;;;21.54;100.00;99775.84;6041434;23;20006;-94
2022/07/09 11:48:03;;;;;;;3.55;0.90;;;;;;;20.57;100.00;99779.22;6041332;23;20088;-96
2022/07/09 11:50:29;;;;;;;4.05;1.10;;;;;;;22.01;100.00;99769.59;6041316;23;20011;-96
2022/07/09 11:52:54;;;;;;;4.70;1.13;;;;;;;21.07;100.00;99781.97;6041440;23;20488;-96
2022/07/09 11:55:33;;;;;;;6.93;1.42;;;;;;;21.17;100.00;99771.88;6040957;23;20043;-96
2022/07/09 11:58:05;;;;;;;5.20;1.13;;;;;;;21.71;100.00;99761.06;6081822;23;20021;-96
2022/07/09 12:00:33;;;;;;;4.73;1.10;;;;;;;22.36;100.00;99783.28;6159475;23;20035;-96
2022/07/09 12:03:00;;;;;;;4.80;1.05;;;;;;;21.77;100.00;99784.72;6160750;23;20017;-96
2022/07/09 12:05:31;;;;;;;4.00;1.10;;;;;;;21.18;100.00;99765.63;6160657;23;20072;-96
2022/07/09 12:08:13;;;;;;;3.85;1.00;;;;;;;21.78;100.00;99787.31;6174496;23;20175;-96
2022/07/09 12:11:12;;;;;;;4.65;1.10;;;;;;;21.73;100.00;99786.63;6177400;23;20012;-96
2022/07/09 12:17:18;;;;;;;4.45;1.05;;;;;;;21.98;100.00;99770.59;6120315;23;20013;-96
2022/07/09 12:20:07;;;;;;;3.38;0.95;;;;;;;21.38;100.00;99772.00;6095053;23;19998;-96
2022/07/09 12:22:38;;;;;;;5.38;0.90;;;;;;;21.15;100.00;99768.41;6255248;22;20024;-93
2022/07/09 12:25:04;;;;;;;3.90;0.80;;;;;;;21.30;100.00;99783.75;6251162;22;20733;-95
2022/07/09 12:27:30;;;;;;;4.75;1.10;;;;;;;21.06;100.00;99779.38;6252156;22;20015;-94
2022/07/09 12:29:56;;;;;;;6.65;1.05;;;;;;;21.71;100.00;99774.31;6250823;22;20000;-95
2022/07/09 12:32:21;;;;;;;6.03;0.90;;;;;;;22.05;100.00;99760.59;6253767;22;20000;-96
2022/07/09 12:34:47;;;;;;;5.07;1.15;;;;;;;21.64;100.00;99760.41;6256030;22;20341;-94
2022/07/09 12:37:12;;;;;;;5.38;0.95;;;;;;;21.90;100.00;99759.41;6255091;22;20026;-96
2022/07/09 12:39:38;;;;;;;5.03;1.20;;;;;;;22.41;100.00;99745.91;6261362;22;19995;-96
2022/07/09 12:42:04;;;;;;;4.75;1.10;;;;;;;22.84;100.00;99738.72;6259137;22;20010;-96
2022/07/09 12:44:30;;;;;;;4.22;1.10;;;;;;;22.91;100.00;99753.47;6253105;22;20011;-96
2022/07/09 12:46:56;;;;;;;4.30;0.80;;;;;;;21.63;100.00;99743.63;6250463;22;20019;-95
2022/07/09 12:49:21;;;;;;;5.43;0.95;;;;;;;21.77;100.00;99744.91;6251770;22;20422;-93
2022/07/09 12:51:47;;;;;;;5.38;1.08;;;;;;;21.81;100.00;99749.16;6251025;22;20065;-95
2022/07/09 12:54:12;;;;;;;5.10;1.10;;;;;;;21.81;100.00;99750.00;6253775;22;20058;-96
2022/07/09 12:56:40;;;;;;;5.30;1.10;;;;;;;22.66;100.00;99757.19;6256459;22;20011;-96
2022/07/09 12:59:06;;;;;;;3.67;1.00;;;;;;;23.18;100.00;99750.53;6256957;22;19995;-96
2022/07/09 13:01:33;;;;;;;5.40;1.00;;;;;;;21.71;100.00;99758.41;6254192;22;20016;-94
2022/07/09 13:03:59;;;;;;;3.58;1.00;;;;;;;22.89;100.00;99759.78;6278743;22;20082;-96
2022/07/09 13:06:33;;;;;;;4.93;1.02;;;;;;;23.41;100.00;99752.16;6253745;22;20038;-96
2022/07/09 13:09:00;;;;;;;5.63;1.20;;;;;;;22.82;100.00;99754.72;6252538;22;20013;-96
2022/07/09 13:11:26;;;;;;;2.70;0.70;;;;;;;23.87;98.82;99751.78;6252129;22;20000;-95
2022/07/09 13:13:52;;;;;;;6.43;1.30;;;;;;;23.10;100.00;99756.16;6253015;22;20402;-95
2022/07/09 13:16:18;;;;;;;7.82;1.00;;;;;;;22.42;100.00;99745.81;6252794;22;20015;-94
2022/07/09 13:18:43;;;;;;;5.82;1.10;;;;;;;21.70;100.00;99728.34;6251026;22;20346;-95
2022/07/09 13:21:09;;;;;;;5.40;1.10;;;;;;;22.68;100.00;99746.50;6251635;22;20034;-95
2022/07/09 13:23:34;;;;;;;3.97;0.90;;;;;;;23.46;100.00;99741.28;6280368;22;20007;-94
2022/07/09 13:26:00;;;;;;;4.05;0.90;;;;;;;22.53;100.00;99732.06;6250063;22;20004;-94
2022/07/09 13:28:26;;;;;;;4.50;1.13;;;;;;;23.06;100.00;99732.44;6252737;22;20003;-96
2022/07/09 13:30:51;;;;;;;5.65;1.10;;;;;;;22.97;100.00;99737.22;6251732;22;20055;-93
2022/07/09 13:33:17;;;;;;;5.10;1.10;;;;;;;22.66;100.00;99732.41;6253328;22;20047;-93
2022/07/09 13:35:43;;;;;;;6.95;1.20;;;;;;;22.74;100.00;99735.59;6250347;22;19995;-93
2022/07/09 13:38:09;;;;;;;4.53;1.10;;;;;;;23.66;100.00;99740.34;6251412;22;20018;-94
2022/07/09 13:40:34;;;;;;;5.57;1.20;;;;;;;23.20;100.00;99734.50;6250100;22;20086;-94
2022/07/09 13:43:00;;;;;;;6.32;1.20;;;;;;;23.27;100.00;99728.84;6247236;22;20038;-95
2022/07/09 13:45:27;;;;;;;5.18;1.20;;;;;;;22.74;100.00;99724.09;6248318;22;20507;-95
2022/07/09 13:47:53;;;;;;;5.75;1.30;;;;;;;23.37;100.00;99726.63;6248654;22;20038;-96
2022/07/09 13:50:19;;;;;;;6.93;1.30;;;;;;;23.25;100.00;99708.56;6246844;22;20011;-93
2022/07/09 13:52:44;;;;;;;4.97;1.30;;;;;;;23.97;100.00;99721.13;6248207;22;20011;-95
2022/07/09 13:55:10;;;;;;;5.13;1.30;;;;;;;24.10;99.30;99724.03;6248401;22;20077;-93
2022/07/09 13:57:35;;;;;;;3.38;1.10;;;;;;;23.68;100.00;99730.50;6248927;22;20027;-93
2022/07/09 14:00:01;;;;;;;5.70;1.30;;;;;;;23.42;100.00;99721.91;6248166;22;20007;-95
2022/07/09 14:02:27;;;;;;;5.93;1.20;;;;;;;23.62;100.00;99718.34;6248052;22;20065;-94
2022/07/09 14:04:54;;;;;;;7.00;1.27;;;;;;;23.47;100.00;99719.91;6248147;22;20011;-96
2022/07/09 14:07:19;;;;;;;5.68;1.17;;;;;;;24.46;100.00;99722.28;6248186;22;20489;-95
2022/07/09 14:09:45;;;;;;;5.20;1.27;;;;;;;24.02;100.00;99728.88;6249285;22;20100;-96
2022/07/09 14:12:10;;;;;;;7.80;1.48;;;;;;;24.07;99.17;99731.34;6248712;22;20079;-94
2022/07/09 14:14:36;;;;;;;5.72;1.25;;;;;;;23.72;100.00;99732.06;6244942;22;19999;-96
2022/07/09 14:17:02;;;;;;;5.50;1.55;;;;;;;23.49;100.00;99730.47;6247143;22;20016;-94
2022/07/09 14:19:30;;;;;;;6.03;1.20;;;;;;;23.55;100.00;99724.00;6246686;22;20038;-94
2022/07/09 14:21:56;;;;;;;7.72;1.55;;;;;;;23.98;97.35;99716.63;6247785;22;20019;-95
2022/07/09 14:24:21;;;;;;;6.13;1.42;;;;;;;24.22;96.74;99714.56;6248523;22;20015;-96
2022/07/09 14:26:48;;;;;;;5.32;1.25;;;;;;;24.00;100.00;99720.09;6248913;22;20007;-93
2022/07/09 14:29:16;;;;;;;5.63;1.17;;;;;;;23.92;100.00;99725.81;6249279;22;20000;-94
2022/07/09 14:31:42;;;;;;;8.27;1.60;;;;;;;23.83;99.31;99723.56;6275849;22;20061;-95
2022/07/09 14:34:07;;;;;;;6.10;1.27;;;;;;;24.32;97.99;99725.63;6274637;22;20011;-94
2022/07/09 14:36:33;;;;;;;6.68;1.25;;;;;;;24.40;94.90;99718.13;6249512;22;20091;-95
2022/07/09 14:39:00;;;;;;;5.28;1.20;;;;;;;23.82;94.89;99727.16;6248427;22;20078;-94
2022/07/09 14:41:28;;;;;;;6.50;1.35;;;;;;;24.85;94.51;99724.69;6247791;22;20525;-94
2022/07/09 14:43:56;;;;;;;7.18;1.25;;;;;;;24.60;94.00;99721.56;6247608;22;20022;-96
2022/07/09 14:46:21;;;;;;;6.15;1.70;;;;;;;24.21;99.90;99723.50;6276226;22;20034;-94
2022/07/09 14:48:47;;;;;;;6.47;1.52;;;;;;;24.64;93.16;99728.50;6248091;22;20008;-95
2022/07/09 14:51:13;;;;;;;6.13;1.63;;;;;;;23.75;95.48;99715.09;6275807;22;20008;-94
2022/07/09 14:53:39;;;;;;;5.97;1.58;;;;;;;24.04;95.57;99719.03;6244635;22;20008;-93
2022/07/09 14:56:05;;;;;;;4.88;1.40;;;;;;;23.90;97.77;99722.38;6247390;22;20322;-94
2022/07/09 14:58:31;;;;;;;5.28;1.40;;;;;;;23.68;100.00;99719.84;6247401;22;20015;-95
2022/07/09 15:00:57;;;;;;;7.03;1.70;;;;;;;23.79;98.30;99722.84;6246463;22;20041;-93
2022/07/09 15:03:27;;;;;;;7.93;1.60;;;;;;;24.69;93.34;99723.75;6246856;22;20065;-95
2022/07/09 15:05:52;;;;;;;6.68;1.70;;;;;;;25.43;91.01;99729.66;6247648;22;20061;-93
2022/07/09 15:08:21;;;;;;;7.47;1.60;;;;;;;24.44;90.97;99733.03;6247898;22;20434;-94
2022/07/09 15:10:47;;;;;;;7.35;1.92;;;;;;;23.60;97.21;99730.00;6248796;22;20119;-93
2022/07/09 15:13:12;;;;;;;6.18;1.58;;;;;;;23.40;97.12;99731.78;6247976;22;20011;-92
2022/07/09 15:15:40;;;;;;;7.32;1.70;;;;;;;24.02;96.82;99727.09;6248093;22;20042;-94
2022/07/09 15:18:07;;;;;;;6.43;1.80;;;;;;;24.27;95.15;99719.66;6247749;22;20014;-95
2022/07/09 15:20:33;;;;;;;8.73;1.90;;;;;;;23.78;94.47;99718.44;6248875;22;20079;-94
2022/07/09 15:22:59;;;;;;;5.70;1.52;;;;;;;23.25;98.38;99722.72;6248302;22;20012;-96
2022/07/09 15:25:30;;;;;;;8.52;1.70;;;;;;;23.72;97.09;99716.09;6247899;22;20437;-93
2022/07/09 15:27:57;;;;;;;7.65;1.65;;;;;;;24.59;95.28;99703.81;6247853;22;20004;-94
2022/07/09 15:30:26;;;;;;;7.63;1.77;;;;;;;24.23;94.33;99695.00;6247919;22;20015;-96
2022/07/09 15:32:54;;;;;;;7.40;2.00;;;;;;;24.05;97.96;99701.22;6246547;22;20003;-95
2022/07/09 15:35:20;;;;;;;7.47;1.63;;;;;;;23.83;97.83;99708.44;6276470;22;20003;-95
2022/07/09 15:37:52;;;;;;;6.07;1.42;;;;;;;24.05;93.74;99695.88;6249270;22;20034;-93
2022/07/09 15:40:19;;;;;;;6.53;1.60;;;;;;;23.35;97.58;99704.50;6249852;22;20055;-93
2022/07/09 15:42:45;;;;;;;9.32;1.77;;;;;;;23.40;100.00;99691.84;6275089;22;20014;-93
2022/07/09 15:45:18;;;;;;;8.77;2.10;;;;;;;24.75;94.26;99691.44;6244614;22;20008;-95
2022/07/09 15:47:43;;;;;;;;;;;;;;;23.92;99.16;99690.31;6274758;22;20077;-94
2022/07/09 15:50:12;;;;;;;8.25;1.63;;;;;;;24.81;95.51;99679.59;6276124;22;19907;-93
2022/07/09 15:52:43;;;;;;;6.35;1.60;;;;;;;23.78;97.20;99690.97;6248699;22;20018;-91
2022/07/09 15:55:11;;;;;;;8.15;1.70;;;;;;;23.18;98.83;99690.19;6274276;22;20004;-96
2022/07/09 15:57:37;;;;;;;7.95;1.70;;;;;;;22.76;100.00;99688.53;6273754;22;19999;-94
2022/07/09 16:00:24;;;;;;;6.93;1.60;;;;;;;23.58;98.02;99692.78;6248746;22;20016;-95
2022/07/09 16:02:54;;;;;;;6.35;1.40;;;;;;;23.12;98.25;99686.97;6246655;22;20023;-93
2022/07/09 16:05:20;;;;;;;6.45;1.70;;;;;;;23.95;95.54;99692.81;6245732;22;20016;-96
2022/07/09 16:07:48;;;;;;;6.15;1.73;;;;;;;23.54;97.58;99691.22;6243968;22;20042;-94
2022/07/09 16:10:29;;;;;;;6.03;1.60;;;;;;;23.78;92.87;99688.28;6246164;22;20062;-94
2022/07/09 16:12:55;;;;;;;6.13;1.45;;;;;;;23.46;91.12;99680.06;6245103;22;20095;-96